Terminal Aerodrome Forecast
Issued by NWS Pittsburgh, PA

Current Version | Previous Version | Graphics & Text | Print | Product List | Glossary On
Versions: 1 2 3 4 5 6 7 8 9 10 11 12 13 14 15 16 17 18 19 20 21 22 23 24 25 26 27 28 29 30 31 32 33 34 35 36 37 38 39 40 41
000
FTUS41 KPBZ 012300 RRA
TAFPIT
TAF
KPIT 012348Z 0200/0306 12005KT 2SM -RA BR SCT004 OVC040
      TEMPO 0200/0204 1SM -RA BR BKN004
     FM020400 13008KT 1SM -RA BR OVC005
     FM020900 22010KT 4SM -DZ BR OVC012
     FM021300 29015G30KT 1SM -SHSN BR OVC008
     FM021800 29015G25KT 6SM -SHSN OVC018
     FM030200 29010KT P6SM OVC025=

USA.gov is the U.S. government's official web portal to all federal, state and local government web resources and services.